createdAt,value
2023-01-31T00:00:53.238Z,101895.28
2023-01-31T00:03:22.926Z,101893.63
2023-01-31T00:05:51.479Z,101891.84
2023-01-31T00:08:19.929Z,101887.47
2023-01-31T00:10:48.421Z,101883.03
2023-01-31T00:13:17.013Z,101891.19
2023-01-31T00:15:46.980Z,101880.66
2023-01-31T00:18:15.508Z,101885.19
2023-01-31T00:20:44.023Z,101884.31
2023-01-31T00:23:12.481Z,101878.56
2023-01-31T00:25:41.126Z,101876.91
2023-01-31T00:28:09.856Z,101885.25
2023-01-31T00:30:38.535Z,101891.56
2023-01-31T00:33:08.455Z,101876.88
2023-01-31T00:35:42.966Z,101885.59
2023-01-31T00:38:15.234Z,101884.09
2023-01-31T00:40:43.906Z,101878.41
2023-01-31T00:43:12.559Z,101877.63
2023-01-31T00:45:42.212Z,101883.56
2023-01-31T00:48:12.265Z,101890.22
2023-01-31T00:50:40.860Z,101877.22
2023-01-31T00:53:09.643Z,101874.88
2023-01-31T00:55:38.353Z,101882.19
2023-01-31T00:58:07.024Z,101876.19
2023-01-31T01:00:35.928Z,101869.97
2023-01-31T01:03:04.851Z,101877.50
2023-01-31T01:05:35.352Z,101870.06
2023-01-31T01:08:05.673Z,101859.19
2023-01-31T01:10:34.708Z,101867.50
2023-01-31T01:13:03.484Z,101858.13
2023-01-31T01:15:32.033Z,101867.25
2023-01-31T01:18:02.627Z,101869.84
2023-01-31T01:20:31.227Z,101851.13
2023-01-31T01:23:02.463Z,101843.09
2023-01-31T01:25:31.723Z,101854.78
2023-01-31T01:28:01.938Z,101860.34
2023-01-31T01:30:32.190Z,101850.88
2023-01-31T01:33:02.216Z,101850.03
2023-01-31T01:35:30.725Z,101856.47
2023-01-31T01:37:59.363Z,101854.88
2023-01-31T01:40:37.923Z,101840.69
2023-01-31T01:43:06.772Z,101857.16
2023-01-31T01:45:36.257Z,101865.88
2023-01-31T01:48:10.013Z,101844.16
2023-01-31T01:50:43.024Z,101866.31
2023-01-31T01:53:15.728Z,101867.69
2023-01-31T01:55:48.832Z,101870.41
2023-01-31T01:58:23.686Z,101878.53
2023-01-31T02:00:53.296Z,101849.59
2023-01-31T02:03:22.259Z,101865.03
2023-01-31T02:05:54.229Z,101866.97
2023-01-31T02:08:25.537Z,101872.72
2023-01-31T02:10:59.390Z,101876.94
2023-01-31T02:13:29.762Z,101882.94
2023-01-31T02:15:59.077Z,101884.72
2023-01-31T02:18:29.452Z,101875.75
2023-01-31T02:21:45.103Z,101879.25
2023-01-31T02:24:47.711Z,101889.25
2023-01-31T02:27:45.321Z,101880.69
2023-01-31T02:30:41.602Z,101890.63
2023-01-31T02:33:22.753Z,101886.56
2023-01-31T02:36:00.309Z,101851.41
2023-01-31T02:38:38.759Z,101894.84
2023-01-31T02:41:18.329Z,101891.63
2023-01-31T02:44:12.249Z,101895.69
2023-01-31T02:47:01.523Z,101897.63
2023-01-31T02:49:39.659Z,101894.34
2023-01-31T02:52:20.490Z,101846.22
2023-01-31T02:55:22.976Z,101897.41
2023-01-31T02:57:54.406Z,101900.66
2023-01-31T03:00:24.610Z,101866.13
2023-01-31T03:02:53.353Z,101902.81
2023-01-31T03:05:24.159Z,101901.88
2023-01-31T03:07:56.045Z,101900.16
2023-01-31T03:10:57.143Z,101898.53
2023-01-31T03:13:43.045Z,101905.72
2023-01-31T03:16:41.687Z,101901.59
2023-01-31T03:19:18.597Z,101863.19
2023-01-31T03:21:54.474Z,101899.25
2023-01-31T03:24:26.503Z,101891.38
2023-01-31T03:26:58.443Z,101889.38
2023-01-31T03:29:29.716Z,101861.06
2023-01-31T03:32:05.108Z,101896.06
2023-01-31T03:34:34.500Z,101893.13
2023-01-31T03:37:13.131Z,101889.56
2023-01-31T03:39:56.422Z,101885.13
2023-01-31T03:42:30.218Z,101876.22
2023-01-31T03:45:05.929Z,101884.00
2023-01-31T03:47:38.914Z,101883.94
2023-01-31T03:50:14.096Z,101881.19
2023-01-31T03:52:47.966Z,101878.53
2023-01-31T03:55:20.607Z,101833.16
2023-01-31T03:57:53.686Z,101867.88
2023-01-31T04:00:24.254Z,101871.22
2023-01-31T04:03:06.248Z,101876.03
2023-01-31T04:05:35.247Z,101880.63
2023-01-31T04:08:07.189Z,101875.41
2023-01-31T04:10:37.496Z,101881.50
2023-01-31T04:13:06.504Z,101883.97
2023-01-31T04:15:35.134Z,101882.09
2023-01-31T04:18:03.701Z,101879.53
2023-01-31T04:20:34.495Z,101877.66
2023-01-31T04:23:04.683Z,101881.31
2023-01-31T04:25:34.689Z,101873.38
2023-01-31T04:28:03.237Z,101868.84
2023-01-31T04:30:32.077Z,101869.59
2023-01-31T04:33:00.658Z,101873.88
2023-01-31T04:35:29.173Z,101876.34
2023-01-31T04:37:57.816Z,101872.69
2023-01-31T04:40:26.498Z,101875.25
2023-01-31T04:42:56.485Z,101876.78
2023-01-31T04:45:25.024Z,101874.13
2023-01-31T04:47:53.577Z,101876.47
2023-01-31T04:50:22.395Z,101863.69
2023-01-31T04:52:52.238Z,101859.91
2023-01-31T04:55:21.332Z,101855.38
2023-01-31T04:57:50.198Z,101847.44
2023-01-31T05:00:21.564Z,101843.84
2023-01-31T05:02:50.539Z,101848.81
2023-01-31T05:05:19.524Z,101841.53
2023-01-31T05:07:48.529Z,101847.34
2023-01-31T05:10:18.378Z,101841.88
2023-01-31T05:12:48.229Z,101841.91
2023-01-31T05:15:17.640Z,101844.97
2023-01-31T05:17:53.457Z,101853.53
2023-01-31T05:20:22.578Z,101856.66
2023-01-31T05:22:51.074Z,101872.41
2023-01-31T05:25:20.117Z,101868.53
2023-01-31T05:27:48.777Z,101870.53
2023-01-31T05:30:17.648Z,101879.34
2023-01-31T05:32:49.329Z,101887.41
2023-01-31T05:35:19.022Z,101896.41
2023-01-31T05:37:47.894Z,101900.94
2023-01-31T05:40:18.045Z,101907.19
2023-01-31T05:42:46.880Z,101913.75
2023-01-31T05:45:17.138Z,101917.50
2023-01-31T05:47:49.134Z,101915.13
2023-01-31T05:50:18.126Z,101930.44
2023-01-31T05:52:51.931Z,101927.13
2023-01-31T05:55:21.007Z,101936.78
2023-01-31T05:57:49.931Z,101937.13
2023-01-31T06:00:19.503Z,101947.47
2023-01-31T06:02:49.595Z,101939.88
2023-01-31T06:05:19.115Z,101941.13
2023-01-31T06:07:47.833Z,101940.44
2023-01-31T06:10:16.431Z,101948.41
2023-01-31T06:12:44.843Z,101950.28
2023-01-31T06:15:13.766Z,101968.16
2023-01-31T06:17:42.345Z,101976.25
2023-01-31T06:20:13.137Z,101992.25
2023-01-31T06:22:43.051Z,101997.63
2023-01-31T06:25:12.027Z,102003.09
2023-01-31T06:27:40.645Z,102005.16
2023-01-31T06:30:11.009Z,102002.91
2023-01-31T06:32:39.539Z,102001.72
2023-01-31T06:35:08.613Z,102009.41
2023-01-31T06:37:38.608Z,102015.84
2023-01-31T06:40:08.030Z,102014.84
2023-01-31T06:42:36.552Z,102012.00
2023-01-31T06:45:05.737Z,102013.78
2023-01-31T06:47:34.330Z,102027.00
2023-01-31T06:50:02.855Z,102027.81
2023-01-31T06:52:31.507Z,102030.13
2023-01-31T06:55:01.410Z,102032.50
2023-01-31T06:57:30.373Z,102034.06
2023-01-31T06:59:58.953Z,102029.34
2023-01-31T07:02:27.461Z,102023.53
2023-01-31T07:04:56.644Z,102027.53
2023-01-31T07:07:25.289Z,102027.03
2023-01-31T07:09:54.093Z,102034.34
2023-01-31T07:12:24.035Z,102028.38
2023-01-31T07:14:52.981Z,102029.91
2023-01-31T07:17:21.823Z,102026.59
2023-01-31T07:19:50.353Z,102044.34
2023-01-31T07:22:18.786Z,102042.00
2023-01-31T07:24:48.974Z,102030.63
2023-01-31T07:27:17.666Z,102040.00
2023-01-31T07:29:47.704Z,102047.19
2023-01-31T07:32:16.187Z,102042.09
2023-01-31T07:34:44.681Z,102050.25
2023-01-31T07:37:13.350Z,102051.09
2023-01-31T07:39:42.796Z,102041.41
2023-01-31T07:42:11.345Z,102047.38
2023-01-31T07:44:39.813Z,102046.38
2023-01-31T07:47:09.758Z,102046.97
2023-01-31T07:49:38.274Z,102045.56
2023-01-31T07:52:08.516Z,102052.50
2023-01-31T07:54:37.247Z,102055.00
2023-01-31T07:57:05.971Z,102066.69
2023-01-31T07:59:34.785Z,102068.97
2023-01-31T08:02:20.732Z,102067.44
2023-01-31T08:04:50.730Z,102073.91
2023-01-31T08:07:19.362Z,102080.84
2023-01-31T08:09:49.934Z,102080.66
2023-01-31T08:12:18.468Z,102074.53
2023-01-31T08:14:47.043Z,102090.44
2023-01-31T08:17:15.852Z,102088.56
2023-01-31T08:19:44.933Z,102090.00
2023-01-31T08:22:14.891Z,102097.63
2023-01-31T08:24:43.450Z,102102.06
2023-01-31T08:27:13.035Z,102106.66
2023-01-31T08:29:41.639Z,102100.47
2023-01-31T08:32:10.423Z,102096.03
2023-01-31T08:34:39.056Z,102097.91
2023-01-31T08:37:07.586Z,102099.94
2023-01-31T08:39:37.664Z,102103.13
2023-01-31T08:42:06.332Z,102097.00
2023-01-31T08:44:34.845Z,102105.31
2023-01-31T08:47:03.625Z,102099.75
2023-01-31T08:49:33.861Z,102110.63
2023-01-31T08:52:02.430Z,102112.56
2023-01-31T08:54:31.371Z,102116.66
2023-01-31T08:57:01.312Z,102118.25
2023-01-31T08:59:31.415Z,102114.16
2023-01-31T09:01:59.997Z,102122.31
2023-01-31T09:04:28.917Z,102126.44
2023-01-31T09:06:57.517Z,102120.47
2023-01-31T09:09:28.182Z,102118.13
2023-01-31T09:11:57.688Z,102127.75
2023-01-31T09:14:27.642Z,102137.13
2023-01-31T09:16:56.350Z,102139.19
2023-01-31T09:19:24.986Z,102148.06
2023-01-31T09:21:53.542Z,102150.28
2023-01-31T09:24:22.484Z,102154.44
2023-01-31T09:26:51.337Z,102150.75
2023-01-31T09:29:20.395Z,102152.16
2023-01-31T09:31:54.073Z,102162.53
2023-01-31T09:34:24.111Z,102169.25
2023-01-31T09:36:52.645Z,102164.59
2023-01-31T09:39:21.964Z,102166.72
2023-01-31T09:41:54.381Z,102170.34
2023-01-31T09:44:27.225Z,102172.06
2023-01-31T09:47:03.733Z,102172.28
2023-01-31T09:49:38.278Z,102139.78
2023-01-31T09:52:07.028Z,102179.00
2023-01-31T09:54:39.669Z,102180.59
2023-01-31T09:57:17.539Z,102187.97
2023-01-31T09:59:51.398Z,102184.91
2023-01-31T10:02:45.435Z,102187.88
2023-01-31T10:05:23.388Z,102181.38
2023-01-31T10:08:00.982Z,102167.03
2023-01-31T10:10:37.889Z,102193.97
2023-01-31T10:13:15.028Z,102190.13
2023-01-31T10:15:46.877Z,102187.75
2023-01-31T10:18:23.246Z,102182.94
2023-01-31T10:20:55.244Z,102190.97
2023-01-31T10:23:30.698Z,102187.75
2023-01-31T10:26:02.084Z,102198.34
2023-01-31T10:28:37.849Z,102198.25
2023-01-31T10:31:14.018Z,102191.50
2023-01-31T10:33:50.864Z,102193.31
2023-01-31T10:36:28.009Z,102191.19
2023-01-31T10:39:04.177Z,102197.88
2023-01-31T10:41:44.840Z,102182.69
2023-01-31T10:44:23.142Z,102185.47
2023-01-31T10:46:54.227Z,102139.84
2023-01-31T10:49:26.134Z,102173.25
2023-01-31T10:52:13.620Z,102177.09
2023-01-31T10:54:54.653Z,102170.22
2023-01-31T10:57:24.168Z,102177.56
2023-01-31T10:59:54.350Z,102174.47
2023-01-31T11:02:26.027Z,102175.47
2023-01-31T11:04:58.146Z,102169.66
2023-01-31T11:07:29.693Z,102168.56
2023-01-31T11:09:58.755Z,102170.69
2023-01-31T11:12:43.114Z,102152.19
2023-01-31T11:15:18.146Z,102157.72
2023-01-31T11:17:48.570Z,102152.53
2023-01-31T11:20:30.227Z,102148.59
2023-01-31T11:23:01.478Z,102142.03
2023-01-31T11:25:32.805Z,102140.38
2023-01-31T11:28:03.372Z,102135.53
2023-01-31T11:30:37.000Z,102129.28
2023-01-31T11:33:06.067Z,102123.34
2023-01-31T11:35:37.180Z,102123.59
2023-01-31T11:38:22.462Z,102123.25
2023-01-31T11:40:51.242Z,102121.78
2023-01-31T11:43:27.852Z,102113.00
2023-01-31T11:45:59.341Z,102110.91
2023-01-31T11:48:33.855Z,102115.91
2023-01-31T11:51:05.205Z,102112.59
2023-01-31T11:53:40.538Z,102104.78
2023-01-31T11:56:14.601Z,102100.88
2023-01-31T11:58:44.967Z,102103.56
2023-01-31T12:01:18.206Z,102079.88
2023-01-31T12:04:01.916Z,102088.28
2023-01-31T12:06:34.657Z,102088.63
2023-01-31T12:09:05.677Z,102082.53
2023-01-31T12:11:35.573Z,102075.56
2023-01-31T12:14:15.123Z,102068.13
2023-01-31T12:16:44.955Z,102064.59
2023-01-31T12:19:26.000Z,102066.69
2023-01-31T12:22:05.095Z,102070.81
2023-01-31T12:24:44.704Z,102060.94
2023-01-31T12:27:26.145Z,102062.16
2023-01-31T12:30:15.101Z,102059.00
2023-01-31T12:33:02.422Z,102066.44
2023-01-31T12:35:42.702Z,102061.69
2023-01-31T12:38:26.771Z,102063.66
2023-01-31T12:41:06.116Z,102062.28
2023-01-31T12:43:52.998Z,102062.88
2023-01-31T12:46:27.119Z,102054.97
2023-01-31T12:49:21.969Z,102056.41
2023-01-31T12:52:01.605Z,102058.25
2023-01-31T12:54:49.491Z,102058.13
2023-01-31T12:57:32.013Z,102056.16
2023-01-31T13:00:13.447Z,102049.69
2023-01-31T13:02:53.777Z,102044.44
2023-01-31T13:05:30.194Z,102046.28
2023-01-31T13:08:06.841Z,102040.06
2023-01-31T13:10:40.530Z,102039.56
2023-01-31T13:13:17.619Z,102037.78
2023-01-31T13:15:50.681Z,102033.84
2023-01-31T13:18:19.920Z,102034.56
2023-01-31T13:20:52.734Z,102019.38
2023-01-31T13:23:30.090Z,102015.97
2023-01-31T13:26:07.750Z,102024.03
2023-01-31T13:28:42.075Z,102012.31
2023-01-31T13:31:19.169Z,101960.13
2023-01-31T13:33:53.807Z,101997.91
2023-01-31T13:36:28.801Z,102001.16
2023-01-31T13:38:58.763Z,101996.94
2023-01-31T13:41:31.891Z,101997.91
2023-01-31T13:44:02.450Z,101992.66
2023-01-31T13:46:36.495Z,101985.59
2023-01-31T13:49:09.557Z,101994.03
2023-01-31T13:51:41.643Z,101958.72
2023-01-31T13:54:19.994Z,101989.06
2023-01-31T13:56:55.028Z,101966.09
2023-01-31T13:59:27.943Z,101985.44
2023-01-31T14:01:59.401Z,101977.34
2023-01-31T14:04:31.975Z,101985.56
2023-01-31T14:07:22.212Z,101982.75
2023-01-31T14:10:30.137Z,101980.81
2023-01-31T14:13:39.968Z,101983.22
2023-01-31T14:16:43.063Z,101984.06
2023-01-31T14:20:02.011Z,101990.16
2023-01-31T14:22:35.149Z,101998.34
2023-01-31T14:25:06.911Z,102000.91
2023-01-31T14:28:03.030Z,101993.19
2023-01-31T14:30:44.721Z,101998.94
2023-01-31T14:33:25.042Z,101991.03
2023-01-31T14:36:19.162Z,101994.69
2023-01-31T14:39:16.898Z,101994.94
2023-01-31T14:42:24.810Z,101994.09
2023-01-31T14:45:14.448Z,102000.00
2023-01-31T14:48:00.500Z,101999.28
2023-01-31T14:50:49.419Z,102006.88
2023-01-31T14:53:40.807Z,101996.13
2023-01-31T14:56:28.424Z,101990.78
2023-01-31T14:58:57.119Z,101994.56
2023-01-31T15:01:35.382Z,101990.16
2023-01-31T15:04:05.853Z,101990.81
2023-01-31T15:06:44.035Z,101987.28
2023-01-31T15:09:36.879Z,101987.66
2023-01-31T15:12:07.907Z,101989.19
2023-01-31T15:14:42.118Z,101999.66
2023-01-31T15:17:33.223Z,102000.63
2023-01-31T15:20:16.025Z,102005.66
2023-01-31T15:22:49.228Z,101991.38
2023-01-31T15:25:30.431Z,101998.59
2023-01-31T15:28:00.393Z,102003.09
2023-01-31T15:30:34.307Z,102006.03
2023-01-31T15:33:08.769Z,101881.22
2023-01-31T15:35:47.772Z,102019.69
2023-01-31T15:38:28.450Z,102011.19
2023-01-31T15:41:20.417Z,102005.81
2023-01-31T15:43:51.195Z,102004.28
2023-01-31T15:46:26.022Z,102024.22
2023-01-31T15:48:55.161Z,102016.59
2023-01-31T15:51:24.434Z,102019.78
2023-01-31T15:54:06.166Z,102021.13
2023-01-31T15:56:39.564Z,102020.50
2023-01-31T15:59:15.794Z,102009.41
2023-01-31T16:01:50.174Z,102018.81
2023-01-31T16:04:19.156Z,102023.44
2023-01-31T16:06:48.734Z,102015.16
2023-01-31T16:09:27.857Z,102012.97
2023-01-31T16:11:58.241Z,102015.06
2023-01-31T16:14:27.454Z,102019.31
2023-01-31T16:17:00.300Z,101999.84
2023-01-31T16:19:31.430Z,102020.44
2023-01-31T16:22:00.752Z,102022.97
2023-01-31T16:24:32.269Z,102025.91
2023-01-31T16:27:03.682Z,102026.38
2023-01-31T16:29:40.538Z,102028.78
2023-01-31T16:32:18.404Z,102030.00
2023-01-31T16:34:54.196Z,102038.97
2023-01-31T16:37:33.622Z,102038.44
2023-01-31T16:40:07.621Z,102015.56
2023-01-31T16:42:39.345Z,102044.31
2023-01-31T16:45:30.447Z,102047.75
2023-01-31T16:48:22.644Z,102056.16
2023-01-31T16:50:53.019Z,102056.13
2023-01-31T16:53:32.716Z,102062.00
2023-01-31T16:56:29.829Z,102071.50
2023-01-31T16:59:00.290Z,102072.84
2023-01-31T17:01:39.740Z,102072.84
2023-01-31T17:04:20.751Z,102040.84
2023-01-31T17:06:52.716Z,102077.69
2023-01-31T17:09:23.638Z,102086.91
2023-01-31T17:11:55.283Z,102077.50
2023-01-31T17:14:24.072Z,102077.19
2023-01-31T17:16:54.057Z,102069.44
2023-01-31T17:19:23.613Z,102078.22
2023-01-31T17:21:52.415Z,102077.50
2023-01-31T17:24:23.903Z,102084.25
2023-01-31T17:26:54.364Z,102076.75
2023-01-31T17:29:23.543Z,102083.91
2023-01-31T17:31:52.135Z,102082.09
2023-01-31T17:34:22.019Z,102090.13
2023-01-31T17:36:50.508Z,102092.03
2023-01-31T17:39:19.711Z,102098.13
2023-01-31T17:41:50.754Z,102097.16
2023-01-31T17:44:22.416Z,102102.63
2023-01-31T17:46:51.086Z,102099.75
2023-01-31T17:49:21.844Z,102100.25
2023-01-31T17:51:50.462Z,102095.97
2023-01-31T17:54:19.694Z,102096.00
2023-01-31T17:56:48.973Z,102096.75
2023-01-31T17:59:26.552Z,102102.78
2023-01-31T18:01:57.595Z,102113.22
2023-01-31T18:04:26.819Z,102106.78
2023-01-31T18:06:55.878Z,102109.16
2023-01-31T18:09:25.930Z,102107.88
2023-01-31T18:11:55.833Z,102112.47
2023-01-31T18:14:24.384Z,102110.31
2023-01-31T18:16:54.433Z,102117.47
2023-01-31T18:19:24.987Z,102127.06
2023-01-31T18:21:55.547Z,102125.59
2023-01-31T18:24:25.633Z,102129.41
2023-01-31T18:26:54.839Z,102125.50
2023-01-31T18:29:27.700Z,102141.13
2023-01-31T18:31:58.049Z,102135.81
2023-01-31T18:34:28.212Z,102138.75
2023-01-31T18:36:56.801Z,102131.44
2023-01-31T18:39:25.352Z,102146.53
2023-01-31T18:41:54.146Z,102137.97
2023-01-31T18:44:23.022Z,102139.25
2023-01-31T18:46:51.748Z,102141.34
2023-01-31T18:49:21.211Z,102136.94
2023-01-31T18:51:51.562Z,102135.09
2023-01-31T18:54:21.036Z,102139.31
2023-01-31T18:56:49.698Z,102148.06
2023-01-31T18:59:18.842Z,102144.59
2023-01-31T19:01:48.148Z,102134.88
2023-01-31T19:04:16.782Z,102144.75
2023-01-31T19:06:46.318Z,102148.53
2023-01-31T19:09:16.358Z,102133.25
2023-01-31T19:11:45.344Z,102152.25
2023-01-31T19:14:15.307Z,102141.56
2023-01-31T19:16:45.057Z,102144.41
2023-01-31T19:19:14.094Z,102149.25
2023-01-31T19:21:42.890Z,102149.44
2023-01-31T19:24:15.520Z,102147.00
2023-01-31T19:26:45.742Z,102145.97
2023-01-31T19:29:16.639Z,102103.25
2023-01-31T19:31:45.390Z,102144.13
2023-01-31T19:34:14.012Z,102144.50
2023-01-31T19:36:44.880Z,102144.25
2023-01-31T19:39:14.442Z,102138.72
2023-01-31T19:41:43.530Z,102137.47
2023-01-31T19:44:13.478Z,102138.19
2023-01-31T19:46:43.676Z,102148.50
2023-01-31T19:49:12.244Z,102153.09
2023-01-31T19:51:41.399Z,102144.88
2023-01-31T19:54:14.974Z,102137.47
2023-01-31T19:56:43.947Z,102135.22
2023-01-31T19:59:13.841Z,102135.59
2023-01-31T20:01:42.407Z,102136.69
2023-01-31T20:04:11.044Z,102133.94
2023-01-31T20:06:40.659Z,102131.06
2023-01-31T20:09:16.195Z,102136.53
2023-01-31T20:11:44.762Z,102143.00
2023-01-31T20:14:14.808Z,102143.22
2023-01-31T20:16:43.433Z,102139.91
2023-01-31T20:19:13.089Z,102137.84
2023-01-31T20:21:41.698Z,102143.38
2023-01-31T20:24:10.970Z,102139.88
2023-01-31T20:26:39.522Z,102144.38
2023-01-31T20:29:09.225Z,102143.44
2023-01-31T20:31:39.367Z,102140.72
2023-01-31T20:34:07.985Z,102143.59
2023-01-31T20:36:37.430Z,102144.94
2023-01-31T20:39:07.339Z,102135.50
2023-01-31T20:41:38.416Z,102140.22
2023-01-31T20:44:07.463Z,102143.00
2023-01-31T20:46:35.956Z,102139.19
2023-01-31T20:49:06.091Z,102140.25
2023-01-31T20:51:34.654Z,102140.38
2023-01-31T20:54:04.026Z,102135.81
2023-01-31T20:56:32.614Z,102133.91
2023-01-31T20:59:01.597Z,102133.97
2023-01-31T21:01:30.210Z,102131.09
2023-01-31T21:03:58.832Z,102134.22
2023-01-31T21:06:28.743Z,102135.13
2023-01-31T21:08:57.531Z,102143.00
2023-01-31T21:11:26.051Z,102139.16
2023-01-31T21:13:54.541Z,102147.69
2023-01-31T21:16:23.053Z,102150.34
2023-01-31T21:18:51.643Z,102156.81
2023-01-31T21:21:23.964Z,102157.41
2023-01-31T21:23:55.473Z,102159.75
2023-01-31T21:26:26.851Z,102145.94
2023-01-31T21:28:55.569Z,102153.53
2023-01-31T21:31:24.169Z,102160.28
2023-01-31T21:33:53.942Z,102165.84
2023-01-31T21:36:24.744Z,102167.88
2023-01-31T21:38:55.212Z,102134.63
2023-01-31T21:41:41.277Z,102167.28
2023-01-31T21:44:09.938Z,102161.84
2023-01-31T21:46:38.505Z,102163.03
2023-01-31T21:49:08.453Z,102172.28
2023-01-31T21:51:36.997Z,102169.31
2023-01-31T21:54:07.215Z,102177.31
2023-01-31T21:56:35.794Z,102170.00
2023-01-31T21:59:04.383Z,102179.69
2023-01-31T22:01:34.565Z,102162.44
2023-01-31T22:04:03.892Z,102177.66
2023-01-31T22:06:37.405Z,102170.75
2023-01-31T22:09:09.254Z,102171.41
2023-01-31T22:11:38.496Z,102173.25
2023-01-31T22:14:08.905Z,102161.75
2023-01-31T22:16:37.892Z,102175.03
2023-01-31T22:19:06.669Z,102170.13
2023-01-31T22:21:37.761Z,102151.47
2023-01-31T22:24:11.822Z,102164.34
2023-01-31T22:26:43.092Z,102057.66
2023-01-31T22:29:14.339Z,102163.53
2023-01-31T22:31:43.509Z,102151.38
2023-01-31T22:34:15.126Z,102148.78
2023-01-31T22:36:43.907Z,102146.53
2023-01-31T22:39:16.193Z,102154.91
2023-01-31T22:41:45.347Z,102157.88
2023-01-31T22:44:14.043Z,102132.72
2023-01-31T22:46:43.823Z,102149.63
2023-01-31T22:49:12.426Z,102148.44
2023-01-31T22:51:41.019Z,102147.34
2023-01-31T22:54:09.750Z,102139.34
2023-01-31T22:56:41.227Z,102146.84
2023-01-31T22:59:11.075Z,102160.91
2023-01-31T23:01:40.736Z,102160.91
2023-01-31T23:04:11.747Z,102157.50
2023-01-31T23:06:40.411Z,102166.63
2023-01-31T23:09:08.925Z,102168.56
2023-01-31T23:11:37.881Z,102177.28
2023-01-31T23:14:07.847Z,102179.13
2023-01-31T23:16:53.609Z,102176.94
2023-01-31T23:19:22.665Z,102175.63
2023-01-31T23:21:51.157Z,102177.59
2023-01-31T23:24:20.629Z,102177.69
2023-01-31T23:26:49.939Z,102174.13
2023-01-31T23:29:20.601Z,102179.31
2023-01-31T23:31:49.354Z,102183.56
2023-01-31T23:34:17.933Z,102173.06
2023-01-31T23:36:46.508Z,102173.06
2023-01-31T23:39:15.215Z,102182.84
2023-01-31T23:41:43.734Z,102176.84
2023-01-31T23:44:12.243Z,102185.72
2023-01-31T23:46:42.291Z,102185.88
2023-01-31T23:49:10.849Z,102180.72
2023-01-31T23:51:40.608Z,102171.19
2023-01-31T23:54:09.237Z,102174.81
2023-01-31T23:56:38.184Z,102166.00
2023-01-31T23:59:06.819Z,102151.34
